Time;durP1;ratioP1;P1;durP2;ratioP2;P2;SDS_P1;SDS_P2;PMS_P1;PMS_P2;Temp;Humidity;BMP_temperature;BMP_pressure;BME280_temperature;BME280_humidity;BME280_pressure;Samples;Min_cycle;Max_cycle;Signal;HPM_P1;HPM_P2
2021/03/26 00:01:08;;;;;;;64.65;18.70;;;;;;;;;;5068234;28;20127;-59
2021/03/26 00:03:36;;;;;;;61.25;17.67;;;;;;;;;;5070080;28;20049;-58
2021/03/26 00:06:12;;;;;;;65.40;18.60;;;;;;;;;;5070648;28;20055;-58
2021/03/26 00:08:38;;;;;;;66.18;18.85;;;;;;;;;;5064807;28;20094;-58
2021/03/26 00:11:05;;;;;;;63.10;18.50;;;;;;;;;;5069223;28;20040;-58
2021/03/26 00:13:32;;;;;;;53.42;18.15;;;;;;;;;;5072270;28;20036;-59
2021/03/26 00:15:58;;;;;;;60.38;18.65;;;;;;;;;;5067419;28;20078;-58
2021/03/26 00:18:24;;;;;;;60.42;18.15;;;;;;;;;;5065605;28;20043;-59
2021/03/26 00:20:51;;;;;;;52.35;17.67;;;;;;;;;;5067973;28;20051;-58
2021/03/26 00:23:18;;;;;;;66.60;18.27;;;;;;;;;;5060860;28;20090;-58
2021/03/26 00:25:44;;;;;;;76.18;19.50;;;;;;;;;;5064139;28;20041;-58
2021/03/26 00:28:10;;;;;;;62.30;19.67;;;;;;;;;;5062160;28;20098;-58
2021/03/26 00:30:37;;;;;;;49.07;19.03;;;;;;;;;;5066315;28;20136;-59
2021/03/26 00:33:05;;;;;;;67.28;19.20;;;;;;;;;;5067468;28;20295;-58
2021/03/26 00:35:32;;;;;;;73.82;20.38;;;;;;;;;;5071472;28;20526;-59
2021/03/26 00:37:58;;;;;;;68.95;20.55;;;;;;;;;;5071739;28;20040;-59
2021/03/26 00:40:24;;;;;;;70.40;21.20;;;;;;;;;;5068680;28;20437;-58
2021/03/26 00:42:51;;;;;;;69.25;21.58;;;;;;;;;;5070703;28;20127;-58
2021/03/26 00:45:19;;;;;;;69.65;22.65;;;;;;;;;;5069003;28;20044;-59
2021/03/26 00:47:46;;;;;;;62.88;21.65;;;;;;;;;;5070832;28;20186;-59
2021/03/26 00:50:18;;;;;;;72.07;24.27;;;;;;;;;;5052293;28;20048;-58
2021/03/26 00:52:44;;;;;;;67.10;21.95;;;;;;;;;;5064881;28;20053;-58
2021/03/26 00:55:12;;;;;;;73.00;24.20;;;;;;;;;;5049528;28;20523;-58
2021/03/26 00:57:39;;;;;;;69.18;24.02;;;;;;;;;;5063349;28;20060;-58
2021/03/26 01:00:07;;;;;;;66.50;23.98;;;;;;;;;;5049807;28;20393;-58
2021/03/26 01:02:37;;;;;;;60.70;23.23;;;;;;;;;;5067070;28;20127;-58
2021/03/26 01:05:07;;;;;;;67.90;24.38;;;;;;;;;;5050246;28;20055;-58
2021/03/26 01:07:34;;;;;;;75.45;24.20;;;;;;;;;;5068660;28;20105;-58
2021/03/26 01:10:00;;;;;;;65.32;23.60;;;;;;;;;;5063702;28;20048;-58
2021/03/26 01:12:27;;;;;;;68.00;23.25;;;;;;;;;;5049092;28;20048;-59
2021/03/26 01:14:54;;;;;;;56.97;21.90;;;;;;;;;;5052814;28;20049;-58
2021/03/26 01:17:21;;;;;;;65.85;22.63;;;;;;;;;;5067572;28;20052;-59
2021/03/26 01:19:48;;;;;;;68.43;23.67;;;;;;;;;;5052908;28;20499;-58
2021/03/26 01:22:14;;;;;;;69.78;23.48;;;;;;;;;;5062299;28;20041;-58
2021/03/26 01:24:41;;;;;;;64.32;22.63;;;;;;;;;;5046465;28;20052;-58
2021/03/26 01:27:08;;;;;;;65.68;24.48;;;;;;;;;;5044583;28;20228;-59
2021/03/26 01:29:39;;;;;;;58.90;22.65;;;;;;;;;;5060363;28;20424;-59
2021/03/26 01:32:08;;;;;;;56.95;23.23;;;;;;;;;;5047314;28;20049;-59
2021/03/26 01:34:38;;;;;;;59.67;22.02;;;;;;;;;;5069919;28;20048;-58
2021/03/26 01:37:05;;;;;;;66.43;24.27;;;;;;;;;;5060535;28;20044;-58
2021/03/26 01:39:43;;;;;;;;;;;;;;;;;;5049566;28;20303;-58
2021/03/26 01:42:25;;;;;;;59.00;21.83;;;;;;;;;;5050508;28;19934;-58
2021/03/26 01:44:52;;;;;;;64.13;21.60;;;;;;;;;;5049207;28;20102;-58
2021/03/26 01:47:24;;;;;;;63.28;22.10;;;;;;;;;;5063835;28;20052;-58
2021/03/26 01:49:51;;;;;;;57.80;21.15;;;;;;;;;;5047645;28;20086;-58
2021/03/26 01:52:18;;;;;;;59.22;21.90;;;;;;;;;;5063933;28;20040;-58
2021/03/26 01:54:45;;;;;;;;;;;;;;;;;;5048728;28;20136;-58
2021/03/26 01:57:14;;;;;;;55.27;20.37;;;;;;;;;;5048906;28;19970;-59
2021/03/26 02:00:08;;;;;;;67.97;22.65;;;;;;;;;;5063889;28;20052;-58
2021/03/26 02:02:43;;;;;;;51.45;20.60;;;;;;;;;;5030549;28;20040;-58
2021/03/26 02:05:29;;;;;;;55.20;21.15;;;;;;;;;;5048870;28;20073;-58
2021/03/26 02:08:24;;;;;;;60.25;19.45;;;;;;;;;;5044480;28;20495;-59
2021/03/26 02:10:57;;;;;;;53.20;20.15;;;;;;;;;;5049343;28;20049;-59
2021/03/26 02:13:27;;;;;;;57.38;20.23;;;;;;;;;;5044024;28;20080;-59
2021/03/26 02:16:00;;;;;;;60.30;19.52;;;;;;;;;;5050625;28;20049;-59
2021/03/26 02:18:29;;;;;;;50.15;19.17;;;;;;;;;;5040490;28;20036;-59
2021/03/26 02:20:57;;;;;;;51.20;19.95;;;;;;;;;;5062882;28;20622;-59
2021/03/26 02:23:25;;;;;;;45.80;18.48;;;;;;;;;;5048872;28;20040;-58
2021/03/26 02:26:21;;;;;;;52.47;18.08;;;;;;;;;;5067167;28;20102;-58
2021/03/26 02:28:49;;;;;;;52.53;18.65;;;;;;;;;;5031059;28;20124;-59
2021/03/26 02:31:38;;;;;;;46.45;17.05;;;;;;;;;;5017017;28;20055;-59
2021/03/26 02:34:05;;;;;;;30.58;12.55;;;;;;;;;;5028688;28;20045;-59
2021/03/26 02:36:32;;;;;;;51.23;19.27;;;;;;;;;;5046952;28;20074;-59
2021/03/26 02:39:05;;;;;;;45.97;16.88;;;;;;;;;;5027104;28;20300;-59
2021/03/26 02:41:38;;;;;;;42.05;17.38;;;;;;;;;;5024984;28;20045;-59
2021/03/26 02:44:20;;;;;;;45.47;15.77;;;;;;;;;;5030800;28;20045;-59
2021/03/26 02:47:01;;;;;;;54.35;16.35;;;;;;;;;;5044608;28;20041;-59
2021/03/26 02:49:30;;;;;;;46.15;15.55;;;;;;;;;;5029208;28;20052;-59
2021/03/26 02:51:58;;;;;;;;;;;;;;;;;;5047777;28;20033;-59
2021/03/26 02:54:29;;;;;;;38.47;15.18;;;;;;;;;;5029977;28;20273;-59
2021/03/26 02:56:58;;;;;;;50.92;17.55;;;;;;;;;;5028035;28;20524;-59
2021/03/26 02:59:45;;;;;;;49.40;16.25;;;;;;;;;;5031272;28;20534;-59
2021/03/26 03:02:13;;;;;;;47.72;15.02;;;;;;;;;;5020167;28;20064;-59
2021/03/26 03:04:55;;;;;;;42.80;15.43;;;;;;;;;;5030460;28;20057;-58
2021/03/26 03:07:36;;;;;;;49.83;17.58;;;;;;;;;;5052873;28;20397;-59
2021/03/26 03:10:40;;;;;;;50.88;18.30;;;;;;;;;;5035755;28;20072;-59
2021/03/26 03:13:12;;;;;;;50.50;16.88;;;;;;;;;;5035597;28;20055;-58
2021/03/26 03:15:47;;;;;;;55.47;18.30;;;;;;;;;;5046182;28;20053;-58
2021/03/26 03:18:20;;;;;;;50.88;18.13;;;;;;;;;;5033387;28;20570;-59
2021/03/26 03:21:03;;;;;;;51.58;19.23;;;;;;;;;;5027944;28;20045;-59
2021/03/26 03:23:43;;;;;;;66.20;20.45;;;;;;;;;;5044833;28;20484;-59
2021/03/26 03:26:20;;;;;;;50.97;20.05;;;;;;;;;;5032198;28;20073;-58
2021/03/26 03:29:10;;;;;;;42.70;17.42;;;;;;;;;;5051745;28;20122;-58
2021/03/26 03:32:01;;;;;;;58.95;21.05;;;;;;;;;;5054442;28;20063;-59
2021/03/26 03:34:49;;;;;;;50.80;19.75;;;;;;;;;;5061786;28;20454;-59
2021/03/26 03:37:28;;;;;;;60.00;22.58;;;;;;;;;;5047240;28;20078;-59
2021/03/26 03:39:59;;;;;;;55.25;22.20;;;;;;;;;;5041717;28;20049;-59
2021/03/26 03:42:32;;;;;;;61.30;24.23;;;;;;;;;;5052387;28;20049;-59
2021/03/26 03:45:04;;;;;;;61.42;22.90;;;;;;;;;;5054156;28;20052;-59
2021/03/26 03:47:38;;;;;;;69.00;26.15;;;;;;;;;;5053213;28;20093;-59
2021/03/26 03:50:18;;;;;;;62.05;23.63;;;;;;;;;;5054177;28;20044;-59
2021/03/26 03:52:52;;;;;;;65.97;23.98;;;;;;;;;;5067272;28;20044;-59
2021/03/26 03:55:25;;;;;;;64.72;23.88;;;;;;;;;;5072182;28;20476;-58
2021/03/26 03:58:04;;;;;;;74.70;26.30;;;;;;;;;;5053811;28;20139;-58
2021/03/26 04:00:33;;;;;;;67.45;25.58;;;;;;;;;;5050806;28;20048;-59
2021/03/26 04:03:07;;;;;;;92.88;30.92;;;;;;;;;;5050195;28;20037;-59
2021/03/26 04:05:41;;;;;;;76.63;30.33;;;;;;;;;;5050562;28;20566;-58
2021/03/26 04:08:19;;;;;;;85.65;30.90;;;;;;;;;;5051521;28;20059;-59
2021/03/26 04:10:49;;;;;;;80.50;29.33;;;;;;;;;;5064981;28;20044;-59
2021/03/26 04:13:20;;;;;;;87.90;32.60;;;;;;;;;;5047411;28;20491;-58
2021/03/26 04:15:49;;;;;;;90.93;32.90;;;;;;;;;;5067166;28;20049;-58
2021/03/26 04:18:31;;;;;;;94.30;34.25;;;;;;;;;;5045346;28;20037;-58
2021/03/26 04:21:29;;;;;;;90.47;33.10;;;;;;;;;;5067744;28;20155;-58
2021/03/26 04:24:26;;;;;;;110.25;37.03;;;;;;;;;;5064258;28;20084;-58
2021/03/26 04:27:21;;;;;;;100.00;35.83;;;;;;;;;;5056341;28;20577;-58
2021/03/26 04:30:23;;;;;;;100.68;37.33;;;;;;;;;;5040337;28;20060;-58
2021/03/26 04:33:08;;;;;;;102.55;37.20;;;;;;;;;;5048446;28;20053;-58
2021/03/26 04:35:35;;;;;;;134.33;41.90;;;;;;;;;;5047140;28;20041;-58
2021/03/26 04:38:11;;;;;;;112.00;39.67;;;;;;;;;;5064433;28;20491;-58
2021/03/26 04:40:43;;;;;;;109.72;39.22;;;;;;;;;;5040878;28;20509;-58
2021/03/26 04:43:14;;;;;;;114.60;39.33;;;;;;;;;;5044358;28;20037;-58
2021/03/26 04:45:41;;;;;;;115.35;39.80;;;;;;;;;;5051907;28;20546;-58
2021/03/26 04:48:27;;;;;;;107.50;39.78;;;;;;;;;;5068592;28;20058;-58
2021/03/26 04:51:06;;;;;;;109.32;39.38;;;;;;;;;;5051207;28;20086;-58
2021/03/26 04:54:23;;;;;;;133.55;43.83;;;;;;;;;;5068423;28;20047;-58
2021/03/26 04:57:02;;;;;;;126.68;42.70;;;;;;;;;;5045948;28;20052;-58
2021/03/26 04:59:52;;;;;;;125.35;43.60;;;;;;;;;;5065874;28;20141;-59
2021/03/26 05:02:21;;;;;;;121.85;45.17;;;;;;;;;;5015247;28;20045;-59
2021/03/26 05:04:51;;;;;;;142.82;47.08;;;;;;;;;;5070908;28;20033;-58
2021/03/26 05:07:23;;;;;;;125.35;45.20;;;;;;;;;;5048095;28;20077;-59
2021/03/26 05:09:55;;;;;;;131.45;45.97;;;;;;;;;;5048642;28;20041;-59
2021/03/26 05:12:49;;;;;;;119.45;45.63;;;;;;;;;;5062966;28;20056;-58
2021/03/26 05:15:32;;;;;;;104.43;41.20;;;;;;;;;;5065377;28;20598;-58
2021/03/26 05:18:12;;;;;;;118.22;46.05;;;;;;;;;;5049778;28;20454;-59
2021/03/26 05:20:45;;;;;;;147.40;49.15;;;;;;;;;;5069296;28;20131;-59
2021/03/26 05:23:26;;;;;;;139.60;52.40;;;;;;;;;;5052448;28;20052;-59
2021/03/26 05:26:13;;;;;;;136.48;49.78;;;;;;;;;;5051334;28;20477;-59
2021/03/26 05:28:46;;;;;;;143.85;51.55;;;;;;;;;;5043012;28;20074;-59
2021/03/26 05:31:33;;;;;;;144.30;53.08;;;;;;;;;;5042522;28;20036;-59
2021/03/26 05:34:07;;;;;;;133.95;52.10;;;;;;;;;;5048040;28;20045;-58
2021/03/26 05:36:40;;;;;;;136.07;50.75;;;;;;;;;;5062366;28;20041;-58
2021/03/26 05:39:28;;;;;;;126.63;50.67;;;;;;;;;;5068343;28;20051;-58
2021/03/26 05:42:29;;;;;;;140.63;52.88;;;;;;;;;;5060582;28;20086;-58
2021/03/26 05:45:27;;;;;;;146.35;53.33;;;;;;;;;;5044960;28;20044;-58
2021/03/26 05:48:41;;;;;;;151.38;55.40;;;;;;;;;;5014515;28;20082;-58
2021/03/26 05:51:29;;;;;;;144.88;55.67;;;;;;;;;;5051722;28;20044;-58
2021/03/26 05:53:55;;;;;;;142.88;54.65;;;;;;;;;;5066152;28;20097;-58
2021/03/26 05:57:01;;;;;;;130.90;51.45;;;;;;;;;;5064665;28;20048;-58
2021/03/26 06:00:02;;;;;;;127.35;52.28;;;;;;;;;;5049000;28;20404;-57
2021/03/26 06:02:59;;;;;;;140.02;54.30;;;;;;;;;;5025183;28;20040;-58
2021/03/26 06:05:57;;;;;;;133.65;51.95;;;;;;;;;;5061847;28;20055;-58
2021/03/26 06:08:49;;;;;;;131.00;52.95;;;;;;;;;;5066141;28;20511;-58
2021/03/26 06:11:45;;;;;;;126.80;52.78;;;;;;;;;;5060155;28;20280;-58
2021/03/26 06:14:50;;;;;;;145.02;53.80;;;;;;;;;;4976823;28;20128;-58
2021/03/26 06:18:05;;;;;;;123.80;50.40;;;;;;;;;;5060488;28;20137;-58
2021/03/26 06:21:10;;;;;;;138.18;55.03;;;;;;;;;;5040057;28;20187;-58
2021/03/26 06:24:01;;;;;;;129.40;52.95;;;;;;;;;;5071529;28;20059;-58
2021/03/26 06:27:05;;;;;;;137.32;53.65;;;;;;;;;;5043461;28;20385;-59
2021/03/26 06:30:01;;;;;;;115.82;49.78;;;;;;;;;;5045929;28;20059;-59
2021/03/26 06:32:53;;;;;;;112.50;49.10;;;;;;;;;;5034000;28;20047;-58
2021/03/26 06:35:38;;;;;;;117.10;52.95;;;;;;;;;;5057314;28;20388;-59
2021/03/26 06:38:13;;;;;;;115.38;51.45;;;;;;;;;;5051090;28;20041;-58
2021/03/26 06:40:42;;;;;;;139.68;53.10;;;;;;;;;;5053870;28;20075;-58
2021/03/26 06:43:25;;;;;;;120.03;50.75;;;;;;;;;;5056154;28;20040;-59
2021/03/26 06:46:00;;;;;;;114.40;50.78;;;;;;;;;;5060127;28;20048;-58
2021/03/26 06:48:29;;;;;;;120.20;51.42;;;;;;;;;;5062506;28;20120;-59
2021/03/26 06:51:07;;;;;;;124.47;53.53;;;;;;;;;;5064372;28;20142;-58
2021/03/26 06:53:40;;;;;;;136.93;53.35;;;;;;;;;;5068073;28;20040;-59
2021/03/26 06:56:25;;;;;;;125.15;54.72;;;;;;;;;;5065367;28;20074;-59
2021/03/26 06:58:57;;;;;;;127.70;53.17;;;;;;;;;;5062316;28;20496;-58
2021/03/26 07:01:45;;;;;;;130.82;55.35;;;;;;;;;;5068092;28;20057;-57
2021/03/26 07:04:37;;;;;;;117.97;51.10;;;;;;;;;;5068863;28;20033;-58
2021/03/26 07:07:16;;;;;;;118.57;51.38;;;;;;;;;;5065290;28;20033;-58
2021/03/26 07:09:42;;;;;;;;;;;;;;;;;;5069751;28;20496;-59
2021/03/26 07:12:27;;;;;;;111.28;48.58;;;;;;;;;;5066086;28;19974;-58
2021/03/26 07:15:03;;;;;;;113.82;50.78;;;;;;;;;;5063198;28;20055;-59
2021/03/26 07:17:39;;;;;;;117.30;52.08;;;;;;;;;;5062843;28;20072;-58
2021/03/26 07:20:13;;;;;;;124.38;51.95;;;;;;;;;;5068063;28;20055;-58
2021/03/26 07:22:46;;;;;;;123.38;51.30;;;;;;;;;;5067666;28;20048;-59
2021/03/26 07:25:18;;;;;;;110.30;48.42;;;;;;;;;;5066338;28;20048;-58
2021/03/26 07:27:54;;;;;;;118.22;50.42;;;;;;;;;;5068822;28;20049;-58
2021/03/26 07:30:21;;;;;;;122.03;50.47;;;;;;;;;;5049925;28;20783;-59
2021/03/26 07:33:04;;;;;;;114.63;49.95;;;;;;;;;;5072900;28;20410;-59
2021/03/26 07:35:36;;;;;;;107.28;48.63;;;;;;;;;;5066184;28;20102;-58
2021/03/26 07:38:21;;;;;;;110.10;49.55;;;;;;;;;;5072566;28;20037;-58
2021/03/26 07:40:51;;;;;;;121.80;49.05;;;;;;;;;;5067228;28;20041;-59
2021/03/26 07:43:27;;;;;;;106.18;47.17;;;;;;;;;;5067568;28;20045;-58
2021/03/26 07:46:09;;;;;;;104.15;47.00;;;;;;;;;;5068042;28;20569;-59
2021/03/26 07:48:55;;;;;;;96.82;42.30;;;;;;;;;;5066764;28;20051;-59
2021/03/26 07:51:27;;;;;;;97.47;45.92;;;;;;;;;;5070374;28;20049;-59
2021/03/26 07:53:56;;;;;;;102.00;45.65;;;;;;;;;;5071793;28;20127;-58
2021/03/26 07:56:22;;;;;;;100.32;46.30;;;;;;;;;;5072518;28;20040;-58
2021/03/26 07:59:06;;;;;;;91.60;42.13;;;;;;;;;;5071000;28;20056;-59
2021/03/26 08:01:35;;;;;;;95.05;43.83;;;;;;;;;;5070906;28;20102;-59
2021/03/26 08:04:37;;;;;;;91.47;42.35;;;;;;;;;;5072585;28;20063;-59
2021/03/26 08:07:22;;;;;;;90.78;39.78;;;;;;;;;;4986929;28;20054;-58
2021/03/26 08:10:01;;;;;;;90.57;41.20;;;;;;;;;;5059898;28;20063;-58
2021/03/26 08:12:41;;;;;;;84.88;41.70;;;;;;;;;;5069761;28;20036;-59
2021/03/26 08:15:07;;;;;;;84.50;39.40;;;;;;;;;;5062906;28;20083;-59
2021/03/26 08:17:39;;;;;;;85.10;40.55;;;;;;;;;;5073563;28;20131;-58
2021/03/26 08:20:08;;;;;;;93.75;40.35;;;;;;;;;;5071920;28;20492;-59
2021/03/26 08:22:41;;;;;;;76.90;38.47;;;;;;;;;;5068050;28;20048;-59
2021/03/26 08:25:19;;;;;;;85.15;40.50;;;;;;;;;;5076302;28;20044;-59
2021/03/26 08:28:10;;;;;;;76.93;37.60;;;;;;;;;;5064785;28;20452;-59
2021/03/26 08:30:53;;;;;;;77.00;37.28;;;;;;;;;;5071023;28;20035;-58
2021/03/26 08:33:38;;;;;;;73.93;36.58;;;;;;;;;;5068662;28;20049;-58
2021/03/26 08:36:14;;;;;;;77.75;37.60;;;;;;;;;;5076523;28;20556;-59
2021/03/26 08:38:56;;;;;;;73.10;37.03;;;;;;;;;;5066360;28;20067;-59
2021/03/26 08:41:27;;;;;;;67.13;34.30;;;;;;;;;;5071260;28;20040;-59
2021/03/26 08:43:55;;;;;;;63.65;32.75;;;;;;;;;;5078553;28;20037;-59
2021/03/26 08:46:24;;;;;;;66.90;32.72;;;;;;;;;;5072583;28;20052;-59
2021/03/26 08:49:08;;;;;;;67.50;31.90;;;;;;;;;;5065339;28;20093;-59
2021/03/26 08:51:47;;;;;;;59.50;30.83;;;;;;;;;;5072684;28;20040;-58
2021/03/26 08:54:16;;;;;;;59.10;30.80;;;;;;;;;;5077506;28;20054;-59
2021/03/26 08:57:01;;;;;;;59.70;30.60;;;;;;;;;;5063708;28;20072;-59
2021/03/26 08:59:35;;;;;;;59.70;28.73;;;;;;;;;;5069299;28;20044;-59
2021/03/26 09:02:10;;;;;;;62.08;28.73;;;;;;;;;;5076075;28;20048;-59
2021/03/26 09:04:43;;;;;;;57.03;29.63;;;;;;;;;;5076325;28;20052;-59
2021/03/26 09:07:19;;;;;;;54.55;30.00;;;;;;;;;;5069519;28;20066;-59
2021/03/26 09:10:06;;;;;;;60.40;29.52;;;;;;;;;;5076577;28;20048;-59
2021/03/26 09:12:55;;;;;;;64.22;29.10;;;;;;;;;;5075039;28;20041;-59
2021/03/26 09:15:39;;;;;;;57.28;29.13;;;;;;;;;;5070665;28;20063;-59
2021/03/26 09:18:06;;;;;;;60.65;30.17;;;;;;;;;;5074934;28;20435;-59
2021/03/26 09:20:54;;;;;;;57.38;30.08;;;;;;;;;;5073784;28;20055;-59
2021/03/26 09:23:28;;;;;;;54.55;27.60;;;;;;;;;;5064292;28;20488;-59
2021/03/26 09:26:15;;;;;;;53.00;28.55;;;;;;;;;;5077115;28;20040;-59
2021/03/26 09:28:46;;;;;;;52.35;27.60;;;;;;;;;;5043149;28;20155;-59
2021/03/26 09:31:20;;;;;;;50.83;27.15;;;;;;;;;;5073801;28;20047;-59
2021/03/26 09:33:58;;;;;;;52.55;26.77;;;;;;;;;;5073500;28;20098;-59
2021/03/26 09:36:27;;;;;;;48.05;27.20;;;;;;;;;;5072929;28;20047;-59
2021/03/26 09:39:05;;;;;;;51.25;26.42;;;;;;;;;;5069659;28;20044;-59
2021/03/26 09:41:51;;;;;;;50.08;27.00;;;;;;;;;;5072095;28;20063;-59
2021/03/26 09:44:28;;;;;;;59.33;28.50;;;;;;;;;;5080346;28;20500;-59
2021/03/26 09:46:58;;;;;;;49.60;26.50;;;;;;;;;;5074879;28;20059;-59
2021/03/26 09:49:43;;;;;;;49.67;25.88;;;;;;;;;;5073022;28;20048;-59
2021/03/26 09:52:09;;;;;;;57.70;27.42;;;;;;;;;;5073545;28;20111;-59
2021/03/26 09:54:38;;;;;;;58.42;28.20;;;;;;;;;;5076720;28;20059;-59
2021/03/26 09:57:16;;;;;;;50.95;26.52;;;;;;;;;;5070960;28;20052;-59
2021/03/26 09:59:53;;;;;;;58.63;27.67;;;;;;;;;;5068778;28;20055;-59
2021/03/26 10:02:19;;;;;;;49.67;25.60;;;;;;;;;;5071051;28;20044;-59
2021/03/26 10:04:50;;;;;;;52.58;24.00;;;;;;;;;;5071587;28;20432;-59
2021/03/26 10:07:35;;;;;;;51.00;23.95;;;;;;;;;;5070385;28;20048;-59
2021/03/26 10:12:58;;;;;;;51.97;26.67;;;;;;;;;;5066846;28;20053;-59
2021/03/26 10:15:27;;;;;;;54.10;26.10;;;;;;;;;;5062273;28;20719;-59
2021/03/26 10:17:59;;;;;;;48.33;23.20;;;;;;;;;;5069053;28;20212;-59
2021/03/26 10:20:29;;;;;;;36.30;15.55;;;;;;;;;;5070853;28;20169;-59
2021/03/26 10:23:22;;;;;;;33.00;13.68;;;;;;;;;;5062494;28;20048;-59
2021/03/26 10:26:07;;;;;;;29.33;14.13;;;;;;;;;;5046876;28;20471;-59
2021/03/26 10:28:34;;;;;;;35.75;17.13;;;;;;;;;;5066677;28;20393;-59
2021/03/26 10:31:14;;;;;;;37.30;17.00;;;;;;;;;;5063925;28;20455;-59
2021/03/26 10:33:50;;;;;;;28.27;13.95;;;;;;;;;;5070317;28;20051;-58
2021/03/26 10:36:29;;;;;;;23.35;10.82;;;;;;;;;;5063734;28;20083;-58
2021/03/26 10:39:04;;;;;;;19.15;9.85;;;;;;;;;;5044178;28;20041;-58
2021/03/26 10:41:38;;;;;;;22.45;9.55;;;;;;;;;;5070196;28;20087;-58
2021/03/26 10:44:10;;;;;;;18.05;8.50;;;;;;;;;;5073796;28;20040;-58
2021/03/26 10:46:43;;;;;;;18.23;8.80;;;;;;;;;;5067168;28;20045;-58
2021/03/26 10:49:22;;;;;;;18.73;8.20;;;;;;;;;;5066691;28;20052;-58
2021/03/26 10:51:51;;;;;;;19.15;8.93;;;;;;;;;;5065393;28;20048;-58
2021/03/26 10:54:21;;;;;;;22.80;10.15;;;;;;;;;;5064504;28;20497;-58
2021/03/26 10:56:54;;;;;;;23.58;9.35;;;;;;;;;;5069892;28;20527;-58
2021/03/26 10:59:27;;;;;;;23.10;11.45;;;;;;;;;;5066424;28;20048;-58
2021/03/26 11:01:57;;;;;;;25.08;12.68;;;;;;;;;;5068810;28;20044;-58
2021/03/26 11:04:32;;;;;;;28.25;13.27;;;;;;;;;;5066485;28;20128;-58
2021/03/26 11:07:04;;;;;;;28.40;12.60;;;;;;;;;;5068144;28;20515;-58
2021/03/26 11:09:38;;;;;;;26.67;13.20;;;;;;;;;;5068726;28;20124;-58
2021/03/26 11:12:19;;;;;;;29.70;13.32;;;;;;;;;;5060371;28;20044;-58
2021/03/26 11:15:02;;;;;;;29.35;12.93;;;;;;;;;;5063449;28;20045;-58
2021/03/26 11:17:33;;;;;;;25.30;12.70;;;;;;;;;;5070474;28;20055;-58
2021/03/26 11:20:17;;;;;;;24.55;12.07;;;;;;;;;;5062094;28;20159;-58
2021/03/26 11:22:51;;;;;;;24.17;12.65;;;;;;;;;;5068595;28;20822;-58
2021/03/26 11:25:23;;;;;;;33.38;13.45;;;;;;;;;;5069768;28;20431;-58
2021/03/26 11:27:51;;;;;;;26.42;12.70;;;;;;;;;;5073634;28;20053;-58
2021/03/26 11:30:18;;;;;;;;;;;;;;;;;;5072250;28;20064;-59
2021/03/26 11:32:47;;;;;;;24.67;11.52;;;;;;;;;;5074964;28;20318;-58
2021/03/26 11:35:16;;;;;;;22.45;11.65;;;;;;;;;;5081117;28;20488;-58
2021/03/26 11:37:54;;;;;;;22.23;11.60;;;;;;;;;;5076668;28;20047;-58
2021/03/26 11:40:40;;;;;;;22.08;10.30;;;;;;;;;;5076479;28;20049;-58
2021/03/26 11:43:11;;;;;;;26.65;11.90;;;;;;;;;;5069610;28;20056;-58
2021/03/26 11:45:41;;;;;;;29.40;12.55;;;;;;;;;;5073712;28;20040;-58
2021/03/26 11:48:21;;;;;;;27.73;11.75;;;;;;;;;;5065707;28;20053;-59
2021/03/26 11:50:47;;;;;;;26.88;10.60;;;;;;;;;;5072720;28;20048;-58
2021/03/26 11:53:18;;;;;;;25.23;10.20;;;;;;;;;;5072143;28;20439;-58
2021/03/26 11:56:03;;;;;;;24.42;10.82;;;;;;;;;;5060267;28;20040;-58
2021/03/26 11:58:34;;;;;;;24.42;10.68;;;;;;;;;;5075560;28;20048;-58
2021/03/26 12:01:04;;;;;;;28.08;12.43;;;;;;;;;;5072210;28;20135;-58
2021/03/26 12:03:40;;;;;;;26.33;12.73;;;;;;;;;;5072998;28;20562;-58
2021/03/26 12:06:15;;;;;;;35.20;14.35;;;;;;;;;;5072826;28;20051;-58
2021/03/26 12:09:06;;;;;;;36.80;13.05;;;;;;;;;;5069450;28;20064;-58
2021/03/26 12:11:36;;;;;;;32.80;14.55;;;;;;;;;;5070701;28;20127;-58
2021/03/26 12:14:16;;;;;;;29.20;12.40;;;;;;;;;;5068120;28;20068;-59
2021/03/26 12:16:51;;;;;;;32.70;13.75;;;;;;;;;;5073338;28;20489;-58
2021/03/26 12:19:19;;;;;;;28.48;12.77;;;;;;;;;;5068402;28;20090;-58
2021/03/26 12:21:45;;;;;;;;;;;;;;;;;;5069911;28;20041;-58
2021/03/26 12:24:13;;;;;;;35.95;13.82;;;;;;;;;;5069042;28;19920;-59
2021/03/26 12:26:49;;;;;;;33.05;14.40;;;;;;;;;;5067793;28;20077;-58
2021/03/26 12:29:16;;;;;;;37.58;14.32;;;;;;;;;;5073220;28;20049;-58
2021/03/26 12:31:49;;;;;;;31.67;13.30;;;;;;;;;;5064603;28;20497;-59
2021/03/26 12:34:39;;;;;;;35.08;13.98;;;;;;;;;;5074278;28;20048;-59
2021/03/26 12:37:07;;;;;;;33.28;14.57;;;;;;;;;;5057929;28;20130;-58
2021/03/26 12:39:40;;;;;;;32.83;14.38;;;;;;;;;;5069366;28;20059;-58
2021/03/26 12:42:07;;;;;;;33.72;13.68;;;;;;;;;;5063780;28;20489;-58
2021/03/26 12:44:36;;;;;;;29.13;13.55;;;;;;;;;;5065645;28;20041;-58
2021/03/26 12:47:02;;;;;;;32.92;13.35;;;;;;;;;;5071743;28;20041;-58
2021/03/26 12:49:36;;;;;;;26.50;12.55;;;;;;;;;;5065385;28;20051;-58
2021/03/26 12:52:06;;;;;;;28.13;12.80;;;;;;;;;;5072385;28;20459;-58
2021/03/26 12:54:35;;;;;;;29.88;11.88;;;;;;;;;;5071029;28;20055;-59
2021/03/26 12:57:09;;;;;;;25.73;12.27;;;;;;;;;;5070612;28;20045;-58
2021/03/26 12:59:40;;;;;;;26.30;12.43;;;;;;;;;;5069645;28;20049;-58
2021/03/26 13:02:16;;;;;;;25.58;12.80;;;;;;;;;;5067410;28;20044;-59
2021/03/26 13:05:02;;;;;;;30.02;12.07;;;;;;;;;;5074121;28;20492;-58
2021/03/26 13:07:47;;;;;;;26.05;12.38;;;;;;;;;;5071404;28;20451;-58
2021/03/26 13:10:22;;;;;;;35.17;13.18;;;;;;;;;;5067341;28;20044;-58
2021/03/26 13:12:49;;;;;;;33.40;14.88;;;;;;;;;;5071027;28;20044;-58
2021/03/26 13:15:27;;;;;;;29.65;13.10;;;;;;;;;;5069226;28;20040;-58
2021/03/26 13:18:01;;;;;;;32.97;14.10;;;;;;;;;;5067859;28;20052;-58
2021/03/26 13:20:28;;;;;;;34.78;14.55;;;;;;;;;;5061639;28;20056;-58
2021/03/26 13:23:00;;;;;;;32.63;15.20;;;;;;;;;;5071279;28;20048;-58
2021/03/26 13:25:43;;;;;;;37.72;16.08;;;;;;;;;;5066520;28;20037;-58
2021/03/26 13:28:22;;;;;;;30.40;14.68;;;;;;;;;;5069712;28;20048;-58
2021/03/26 13:30:47;;;;;;;;;;;;;;;;;;5070536;28;20052;-58
2021/03/26 13:33:16;;;;;;;36.45;16.15;;;;;;;;;;5071775;28;19924;-58
2021/03/26 13:36:07;;;;;;;38.80;16.48;;;;;;;;;;5071015;28;20508;-58
2021/03/26 13:38:33;;;;;;;42.67;17.10;;;;;;;;;;5064127;28;20056;-59
2021/03/26 13:41:01;;;;;;;40.58;18.65;;;;;;;;;;5066859;28;20412;-58
2021/03/26 13:43:32;;;;;;;46.88;20.60;;;;;;;;;;5068578;28;20488;-58
2021/03/26 13:46:02;;;;;;;44.50;19.85;;;;;;;;;;5069481;28;20043;-58
2021/03/26 13:48:30;;;;;;;45.20;21.73;;;;;;;;;;5063367;28;20051;-58
2021/03/26 13:51:02;;;;;;;50.22;20.80;;;;;;;;;;5065676;28;20056;-58
2021/03/26 13:53:39;;;;;;;44.83;21.00;;;;;;;;;;5070673;28;20123;-58
2021/03/26 13:56:17;;;;;;;42.45;20.23;;;;;;;;;;5072116;28;20048;-59
2021/03/26 13:58:43;;;;;;;46.43;20.73;;;;;;;;;;5045958;28;20048;-58
2021/03/26 14:01:29;;;;;;;50.40;21.20;;;;;;;;;;5052350;28;20307;-58
2021/03/26 14:04:02;;;;;;;48.47;19.98;;;;;;;;;;5057565;28;20105;-58
2021/03/26 14:06:39;;;;;;;41.15;19.30;;;;;;;;;;5068453;28;20052;-58
2021/03/26 14:09:24;;;;;;;47.65;20.75;;;;;;;;;;5065825;28;20044;-58
2021/03/26 14:12:06;;;;;;;39.95;20.35;;;;;;;;;;5064281;28;20036;-58
2021/03/26 14:14:49;;;;;;;41.50;19.52;;;;;;;;;;5058786;28;20052;-58
2021/03/26 14:17:34;;;;;;;43.30;19.30;;;;;;;;;;5069464;28;20041;-58
2021/03/26 14:20:06;;;;;;;38.67;19.98;;;;;;;;;;5067106;28;20524;-59
2021/03/26 14:22:36;;;;;;;38.40;19.65;;;;;;;;;;5069027;28;20492;-58
2021/03/26 14:25:05;;;;;;;44.78;20.13;;;;;;;;;;5048602;28;20068;-58
2021/03/26 14:27:34;;;;;;;48.90;19.92;;;;;;;;;;5071549;28;20561;-58
2021/03/26 14:30:16;;;;;;;42.20;20.50;;;;;;;;;;5070332;28;20087;-58
2021/03/26 14:32:50;;;;;;;42.40;19.70;;;;;;;;;;5070358;28;20044;-58
2021/03/26 14:35:22;;;;;;;49.63;20.35;;;;;;;;;;5063428;28;20139;-58
2021/03/26 14:37:54;;;;;;;47.83;22.17;;;;;;;;;;5065462;28;20467;-58
2021/03/26 14:40:24;;;;;;;42.30;20.08;;;;;;;;;;5058735;28;20567;-58
2021/03/26 14:43:01;;;;;;;35.80;18.35;;;;;;;;;;5072400;28;20045;-58
2021/03/26 14:45:32;;;;;;;43.63;20.42;;;;;;;;;;5068355;28;20048;-58
2021/03/26 14:48:01;;;;;;;48.83;21.17;;;;;;;;;;5067849;28;20534;-58
2021/03/26 14:50:28;;;;;;;47.28;20.92;;;;;;;;;;5067571;28;20385;-59
2021/03/26 14:52:56;;;;;;;43.13;20.77;;;;;;;;;;5067448;28;20048;-58
2021/03/26 14:55:25;;;;;;;46.33;20.55;;;;;;;;;;5069084;28;20040;-59
2021/03/26 14:57:58;;;;;;;47.70;19.42;;;;;;;;;;5070206;28;20431;-58
2021/03/26 15:00:42;;;;;;;45.83;20.45;;;;;;;;;;5072561;28;20056;-58
2021/03/26 15:03:28;;;;;;;43.55;19.88;;;;;;;;;;5071554;28;20047;-58
2021/03/26 15:05:55;;;;;;;43.22;18.10;;;;;;;;;;5070308;28;20055;-58
2021/03/26 15:08:23;;;;;;;39.30;19.30;;;;;;;;;;5072086;28;20454;-59
2021/03/26 15:10:50;;;;;;;43.45;19.67;;;;;;;;;;5073837;28;20037;-58